sensor_id;sensor_type;location;lat;lon;timestamp;P1;durP1;ratioP1;P2;durP2;ratioP2
84140;SDS011;74257;52.540;13.416;2024-01-27T00:01:44;8.77;;;4.10;;
84140;SDS011;74257;52.540;13.416;2024-01-27T00:04:10;9.32;;;4.10;;
84140;SDS011;74257;52.540;13.416;2024-01-27T00:06:35;10.68;;;4.57;;
84140;SDS011;74257;52.540;13.416;2024-01-27T00:09:02;9.30;;;4.20;;
84140;SDS011;74257;52.540;13.416;2024-01-27T00:11:28;9.63;;;4.78;;
84140;SDS011;74257;52.540;13.416;2024-01-27T00:13:53;10.82;;;4.63;;
84140;SDS011;74257;52.540;13.416;2024-01-27T00:16:19;10.90;;;3.85;;
84140;SDS011;74257;52.540;13.416;2024-01-27T00:18:45;8.60;;;4.43;;
84140;SDS011;74257;52.540;13.416;2024-01-27T00:21:11;10.73;;;4.30;;
84140;SDS011;74257;52.540;13.416;2024-01-27T00:23:37;8.05;;;4.10;;
84140;SDS011;74257;52.540;13.416;2024-01-27T00:26:03;7.68;;;3.80;;
84140;SDS011;74257;52.540;13.416;2024-01-27T00:28:29;9.35;;;4.40;;
84140;SDS011;74257;52.540;13.416;2024-01-27T00:30:55;10.73;;;4.82;;
84140;SDS011;74257;52.540;13.416;2024-01-27T00:33:21;7.93;;;3.83;;
84140;SDS011;74257;52.540;13.416;2024-01-27T00:35:47;9.35;;;4.28;;
84140;SDS011;74257;52.540;13.416;2024-01-27T00:38:13;9.43;;;4.03;;
84140;SDS011;74257;52.540;13.416;2024-01-27T00:40:40;10.55;;;4.05;;
84140;SDS011;74257;52.540;13.416;2024-01-27T00:43:06;9.60;;;4.20;;
84140;SDS011;74257;52.540;13.416;2024-01-27T00:45:31;5.85;;;3.65;;
84140;SDS011;74257;52.540;13.416;2024-01-27T00:47:58;10.02;;;4.03;;
84140;SDS011;74257;52.540;13.416;2024-01-27T00:50:24;7.07;;;3.85;;
84140;SDS011;74257;52.540;13.416;2024-01-27T00:52:50;8.23;;;3.95;;
84140;SDS011;74257;52.540;13.416;2024-01-27T00:55:15;8.63;;;3.80;;
84140;SDS011;74257;52.540;13.416;2024-01-27T00:57:42;8.60;;;4.30;;
84140;SDS011;74257;52.540;13.416;2024-01-27T01:00:09;8.48;;;4.25;;
84140;SDS011;74257;52.540;13.416;2024-01-27T01:02:36;9.85;;;4.63;;
84140;SDS011;74257;52.540;13.416;2024-01-27T01:05:02;11.68;;;4.32;;
84140;SDS011;74257;52.540;13.416;2024-01-27T01:07:32;6.88;;;3.65;;
84140;SDS011;74257;52.540;13.416;2024-01-27T01:09:58;8.55;;;3.90;;
84140;SDS011;74257;52.540;13.416;2024-01-27T01:12:24;8.63;;;3.95;;
84140;SDS011;74257;52.540;13.416;2024-01-27T01:14:51;9.65;;;4.15;;
84140;SDS011;74257;52.540;13.416;2024-01-27T01:17:17;8.48;;;3.67;;
84140;SDS011;74257;52.540;13.416;2024-01-27T01:19:43;9.70;;;3.78;;
84140;SDS011;74257;52.540;13.416;2024-01-27T01:22:09;6.60;;;3.78;;
84140;SDS011;74257;52.540;13.416;2024-01-27T01:24:35;8.55;;;3.60;;
84140;SDS011;74257;52.540;13.416;2024-01-27T01:27:01;7.90;;;3.95;;
84140;SDS011;74257;52.540;13.416;2024-01-27T01:29:26;8.02;;;4.03;;
84140;SDS011;74257;52.540;13.416;2024-01-27T01:31:52;7.15;;;3.33;;
84140;SDS011;74257;52.540;13.416;2024-01-27T01:34:18;9.02;;;3.88;;
84140;SDS011;74257;52.540;13.416;2024-01-27T01:36:44;8.50;;;3.53;;
84140;SDS011;74257;52.540;13.416;2024-01-27T01:39:11;7.03;;;3.88;;
84140;SDS011;74257;52.540;13.416;2024-01-27T01:41:38;7.65;;;3.25;;
84140;SDS011;74257;52.540;13.416;2024-01-27T01:44:04;7.68;;;3.35;;
84140;SDS011;74257;52.540;13.416;2024-01-27T01:46:31;7.35;;;3.50;;
84140;SDS011;74257;52.540;13.416;2024-01-27T01:48:57;8.40;;;3.65;;
84140;SDS011;74257;52.540;13.416;2024-01-27T01:51:24;7.50;;;3.47;;
84140;SDS011;74257;52.540;13.416;2024-01-27T01:53:51;8.07;;;3.88;;
84140;SDS011;74257;52.540;13.416;2024-01-27T01:56:20;7.35;;;3.50;;
84140;SDS011;74257;52.540;13.416;2024-01-27T01:58:46;7.50;;;3.88;;
84140;SDS011;74257;52.540;13.416;2024-01-27T02:01:12;11.73;;;3.13;;
84140;SDS011;74257;52.540;13.416;2024-01-27T02:03:38;7.65;;;3.20;;
84140;SDS011;74257;52.540;13.416;2024-01-27T02:06:04;8.05;;;3.53;;
84140;SDS011;74257;52.540;13.416;2024-01-27T02:08:31;8.02;;;3.38;;
84140;SDS011;74257;52.540;13.416;2024-01-27T02:10:56;10.10;;;3.33;;
84140;SDS011;74257;52.540;13.416;2024-01-27T02:13:23;6.55;;;3.22;;
84140;SDS011;74257;52.540;13.416;2024-01-27T02:15:49;8.45;;;3.50;;
84140;SDS011;74257;52.540;13.416;2024-01-27T02:18:16;8.13;;;3.53;;
84140;SDS011;74257;52.540;13.416;2024-01-27T02:20:42;7.00;;;3.40;;
84140;SDS011;74257;52.540;13.416;2024-01-27T02:23:08;7.03;;;3.47;;
84140;SDS011;74257;52.540;13.416;2024-01-27T02:25:35;5.93;;;3.08;;
84140;SDS011;74257;52.540;13.416;2024-01-27T02:28:01;5.32;;;2.92;;
84140;SDS011;74257;52.540;13.416;2024-01-27T02:30:30;7.00;;;3.20;;
84140;SDS011;74257;52.540;13.416;2024-01-27T02:32:56;7.93;;;3.50;;
84140;SDS011;74257;52.540;13.416;2024-01-27T02:35:23;7.18;;;3.30;;
84140;SDS011;74257;52.540;13.416;2024-01-27T02:37:49;5.93;;;3.00;;
84140;SDS011;74257;52.540;13.416;2024-01-27T02:40:15;8.18;;;3.40;;
84140;SDS011;74257;52.540;13.416;2024-01-27T02:42:40;4.85;;;2.88;;
84140;SDS011;74257;52.540;13.416;2024-01-27T02:45:10;6.78;;;3.10;;
84140;SDS011;74257;52.540;13.416;2024-01-27T02:47:37;6.63;;;3.33;;
84140;SDS011;74257;52.540;13.416;2024-01-27T02:50:03;7.13;;;3.10;;
84140;SDS011;74257;52.540;13.416;2024-01-27T02:52:31;6.38;;;3.13;;
84140;SDS011;74257;52.540;13.416;2024-01-27T02:54:58;6.93;;;2.88;;
84140;SDS011;74257;52.540;13.416;2024-01-27T02:57:24;8.23;;;2.80;;
84140;SDS011;74257;52.540;13.416;2024-01-27T02:59:50;5.82;;;2.50;;
84140;SDS011;74257;52.540;13.416;2024-01-27T03:02:15;6.90;;;2.90;;
84140;SDS011;74257;52.540;13.416;2024-01-27T03:04:41;7.53;;;2.90;;
84140;SDS011;74257;52.540;13.416;2024-01-27T03:07:07;5.55;;;2.67;;
84140;SDS011;74257;52.540;13.416;2024-01-27T03:09:33;7.10;;;2.70;;
84140;SDS011;74257;52.540;13.416;2024-01-27T03:11:59;8.27;;;3.08;;
84140;SDS011;74257;52.540;13.416;2024-01-27T03:14:25;5.57;;;2.97;;
84140;SDS011;74257;52.540;13.416;2024-01-27T03:16:52;7.50;;;3.05;;
84140;SDS011;74257;52.540;13.416;2024-01-27T03:19:18;5.55;;;2.70;;
84140;SDS011;74257;52.540;13.416;2024-01-27T03:21:43;5.88;;;3.00;;
84140;SDS011;74257;52.540;13.416;2024-01-27T03:24:09;6.68;;;3.00;;
84140;SDS011;74257;52.540;13.416;2024-01-27T03:26:35;7.75;;;2.67;;
84140;SDS011;74257;52.540;13.416;2024-01-27T03:29:01;8.23;;;3.55;;
84140;SDS011;74257;52.540;13.416;2024-01-27T03:31:33;6.32;;;3.13;;
84140;SDS011;74257;52.540;13.416;2024-01-27T03:34:00;6.43;;;3.03;;
84140;SDS011;74257;52.540;13.416;2024-01-27T03:36:26;6.82;;;3.13;;
84140;SDS011;74257;52.540;13.416;2024-01-27T03:38:53;7.72;;;3.08;;
84140;SDS011;74257;52.540;13.416;2024-01-27T03:41:19;6.35;;;2.60;;
84140;SDS011;74257;52.540;13.416;2024-01-27T03:43:45;5.22;;;2.58;;
84140;SDS011;74257;52.540;13.416;2024-01-27T03:46:11;4.75;;;2.45;;
84140;SDS011;74257;52.540;13.416;2024-01-27T03:48:37;7.22;;;2.75;;
84140;SDS011;74257;52.540;13.416;2024-01-27T03:51:03;7.95;;;3.05;;
84140;SDS011;74257;52.540;13.416;2024-01-27T03:53:29;5.32;;;2.70;;
84140;SDS011;74257;52.540;13.416;2024-01-27T03:55:55;5.53;;;2.55;;
84140;SDS011;74257;52.540;13.416;2024-01-27T03:58:24;6.13;;;3.10;;
84140;SDS011;74257;52.540;13.416;2024-01-27T04:00:51;5.68;;;2.35;;
84140;SDS011;74257;52.540;13.416;2024-01-27T04:03:17;6.15;;;3.30;;
84140;SDS011;74257;52.540;13.416;2024-01-27T04:05:42;5.93;;;2.33;;
84140;SDS011;74257;52.540;13.416;2024-01-27T04:08:09;5.93;;;2.65;;
84140;SDS011;74257;52.540;13.416;2024-01-27T04:10:35;6.40;;;2.50;;
84140;SDS011;74257;52.540;13.416;2024-01-27T04:13:02;5.90;;;2.97;;
84140;SDS011;74257;52.540;13.416;2024-01-27T04:15:28;6.10;;;2.88;;
84140;SDS011;74257;52.540;13.416;2024-01-27T04:17:54;6.18;;;2.42;;
84140;SDS011;74257;52.540;13.416;2024-01-27T04:20:20;5.70;;;2.22;;
84140;SDS011;74257;52.540;13.416;2024-01-27T04:22:46;5.47;;;2.60;;
84140;SDS011;74257;52.540;13.416;2024-01-27T04:25:12;7.32;;;2.85;;
84140;SDS011;74257;52.540;13.416;2024-01-27T04:27:38;6.03;;;2.97;;
84140;SDS011;74257;52.540;13.416;2024-01-27T04:30:05;8.45;;;3.08;;
84140;SDS011;74257;52.540;13.416;2024-01-27T04:32:32;4.93;;;2.50;;
84140;SDS011;74257;52.540;13.416;2024-01-27T04:34:58;5.40;;;2.35;;
84140;SDS011;74257;52.540;13.416;2024-01-27T04:37:24;8.90;;;3.35;;
84140;SDS011;74257;52.540;13.416;2024-01-27T04:39:50;5.93;;;2.45;;
84140;SDS011;74257;52.540;13.416;2024-01-27T04:42:16;5.70;;;2.38;;
84140;SDS011;74257;52.540;13.416;2024-01-27T04:44:42;5.97;;;2.50;;
84140;SDS011;74257;52.540;13.416;2024-01-27T04:47:08;5.90;;;2.30;;
84140;SDS011;74257;52.540;13.416;2024-01-27T04:49:33;5.90;;;2.38;;
84140;SDS011;74257;52.540;13.416;2024-01-27T04:51:59;4.43;;;2.40;;
84140;SDS011;74257;52.540;13.416;2024-01-27T04:54:25;5.38;;;2.65;;
84140;SDS011;74257;52.540;13.416;2024-01-27T04:56:51;6.25;;;2.67;;
84140;SDS011;74257;52.540;13.416;2024-01-27T04:59:17;6.38;;;2.50;;
84140;SDS011;74257;52.540;13.416;2024-01-27T05:01:46;6.63;;;2.40;;
84140;SDS011;74257;52.540;13.416;2024-01-27T05:04:12;4.85;;;2.30;;
84140;SDS011;74257;52.540;13.416;2024-01-27T05:06:43;5.45;;;2.45;;
84140;SDS011;74257;52.540;13.416;2024-01-27T05:09:09;5.60;;;2.35;;
84140;SDS011;74257;52.540;13.416;2024-01-27T05:11:35;7.25;;;2.33;;
84140;SDS011;74257;52.540;13.416;2024-01-27T05:14:00;6.00;;;2.65;;
84140;SDS011;74257;52.540;13.416;2024-01-27T05:16:27;5.45;;;2.53;;
84140;SDS011;74257;52.540;13.416;2024-01-27T05:18:53;7.00;;;2.95;;
84140;SDS011;74257;52.540;13.416;2024-01-27T05:21:20;4.78;;;2.30;;
84140;SDS011;74257;52.540;13.416;2024-01-27T05:23:45;5.13;;;2.47;;
84140;SDS011;74257;52.540;13.416;2024-01-27T05:26:11;5.15;;;2.13;;
84140;SDS011;74257;52.540;13.416;2024-01-27T05:28:37;6.35;;;2.42;;
84140;SDS011;74257;52.540;13.416;2024-01-27T05:31:07;4.88;;;2.42;;
84140;SDS011;74257;52.540;13.416;2024-01-27T05:33:37;5.32;;;2.47;;
84140;SDS011;74257;52.540;13.416;2024-01-27T05:36:05;5.13;;;2.47;;
84140;SDS011;74257;52.540;13.416;2024-01-27T05:38:31;4.82;;;2.33;;
84140;SDS011;74257;52.540;13.416;2024-01-27T05:41:00;4.15;;;2.00;;
84140;SDS011;74257;52.540;13.416;2024-01-27T05:43:26;7.85;;;2.92;;
84140;SDS011;74257;52.540;13.416;2024-01-27T05:45:52;5.82;;;2.38;;
84140;SDS011;74257;52.540;13.416;2024-01-27T05:48:18;5.97;;;2.42;;
84140;SDS011;74257;52.540;13.416;2024-01-27T05:50:54;5.70;;;2.38;;
84140;SDS011;74257;52.540;13.416;2024-01-27T05:53:21;6.40;;;2.50;;
84140;SDS011;74257;52.540;13.416;2024-01-27T05:55:47;3.85;;;2.10;;
84140;SDS011;74257;52.540;13.416;2024-01-27T05:58:13;7.25;;;2.20;;
84140;SDS011;74257;52.540;13.416;2024-01-27T06:00:39;4.97;;;1.90;;
84140;SDS011;74257;52.540;13.416;2024-01-27T06:03:05;5.57;;;2.30;;
84140;SDS011;74257;52.540;13.416;2024-01-27T06:05:31;5.95;;;2.25;;
84140;SDS011;74257;52.540;13.416;2024-01-27T06:07:56;7.80;;;2.70;;
84140;SDS011;74257;52.540;13.416;2024-01-27T06:10:22;4.03;;;2.05;;
84140;SDS011;74257;52.540;13.416;2024-01-27T06:12:49;5.90;;;2.85;;
84140;SDS011;74257;52.540;13.416;2024-01-27T06:15:16;5.13;;;2.22;;
84140;SDS011;74257;52.540;13.416;2024-01-27T06:17:42;5.93;;;2.10;;
84140;SDS011;74257;52.540;13.416;2024-01-27T06:20:08;5.43;;;2.17;;
84140;SDS011;74257;52.540;13.416;2024-01-27T06:22:34;4.07;;;2.15;;
84140;SDS011;74257;52.540;13.416;2024-01-27T06:25:00;4.25;;;2.13;;
84140;SDS011;74257;52.540;13.416;2024-01-27T06:27:25;5.57;;;2.30;;
84140;SDS011;74257;52.540;13.416;2024-01-27T06:29:51;6.63;;;2.38;;
84140;SDS011;74257;52.540;13.416;2024-01-27T06:32:17;5.43;;;1.95;;
84140;SDS011;74257;52.540;13.416;2024-01-27T06:34:43;4.18;;;2.20;;
84140;SDS011;74257;52.540;13.416;2024-01-27T06:37:09;4.45;;;2.22;;
84140;SDS011;74257;52.540;13.416;2024-01-27T06:39:34;5.35;;;2.40;;
84140;SDS011;74257;52.540;13.416;2024-01-27T06:42:00;4.90;;;2.22;;
84140;SDS011;74257;52.540;13.416;2024-01-27T06:44:27;5.07;;;2.38;;
84140;SDS011;74257;52.540;13.416;2024-01-27T06:46:52;6.28;;;2.20;;
84140;SDS011;74257;52.540;13.416;2024-01-27T06:49:18;4.53;;;2.15;;
84140;SDS011;74257;52.540;13.416;2024-01-27T06:51:45;3.90;;;1.73;;
84140;SDS011;74257;52.540;13.416;2024-01-27T06:54:11;4.25;;;2.22;;
84140;SDS011;74257;52.540;13.416;2024-01-27T06:56:37;5.35;;;1.95;;
84140;SDS011;74257;52.540;13.416;2024-01-27T06:59:03;4.72;;;2.20;;
84140;SDS011;74257;52.540;13.416;2024-01-27T07:01:29;4.35;;;2.20;;
84140;SDS011;74257;52.540;13.416;2024-01-27T07:03:55;5.20;;;2.25;;
84140;SDS011;74257;52.540;13.416;2024-01-27T07:06:21;8.35;;;2.20;;
84140;SDS011;74257;52.540;13.416;2024-01-27T07:08:47;8.85;;;2.05;;
84140;SDS011;74257;52.540;13.416;2024-01-27T07:11:12;4.38;;;2.00;;
84140;SDS011;74257;52.540;13.416;2024-01-27T07:13:39;4.93;;;2.30;;
84140;SDS011;74257;52.540;13.416;2024-01-27T07:16:06;5.88;;;2.28;;
84140;SDS011;74257;52.540;13.416;2024-01-27T07:18:32;4.65;;;2.08;;
84140;SDS011;74257;52.540;13.416;2024-01-27T07:21:00;8.00;;;2.30;;
84140;SDS011;74257;52.540;13.416;2024-01-27T07:23:27;4.78;;;2.00;;
84140;SDS011;74257;52.540;13.416;2024-01-27T07:25:53;5.75;;;2.28;;
84140;SDS011;74257;52.540;13.416;2024-01-27T07:28:19;4.15;;;2.00;;
84140;SDS011;74257;52.540;13.416;2024-01-27T07:30:45;6.13;;;2.00;;
84140;SDS011;74257;52.540;13.416;2024-01-27T07:33:11;5.85;;;2.45;;
84140;SDS011;74257;52.540;13.416;2024-01-27T07:35:37;4.97;;;2.10;;
84140;SDS011;74257;52.540;13.416;2024-01-27T07:38:03;10.73;;;2.78;;
84140;SDS011;74257;52.540;13.416;2024-01-27T07:40:28;5.85;;;2.08;;
84140;SDS011;74257;52.540;13.416;2024-01-27T07:42:54;7.43;;;2.90;;
84140;SDS011;74257;52.540;13.416;2024-01-27T07:45:20;4.55;;;1.90;;
84140;SDS011;74257;52.540;13.416;2024-01-27T07:47:46;4.50;;;1.98;;
84140;SDS011;74257;52.540;13.416;2024-01-27T07:50:12;5.65;;;2.15;;
84140;SDS011;74257;52.540;13.416;2024-01-27T07:52:38;8.65;;;2.22;;
84140;SDS011;74257;52.540;13.416;2024-01-27T07:55:04;5.80;;;2.20;;
84140;SDS011;74257;52.540;13.416;2024-01-27T07:57:30;9.15;;;2.30;;
84140;SDS011;74257;52.540;13.416;2024-01-27T07:59:57;5.40;;;2.10;;
84140;SDS011;74257;52.540;13.416;2024-01-27T08:02:23;9.75;;;3.08;;
84140;SDS011;74257;52.540;13.416;2024-01-27T08:04:48;7.68;;;2.20;;
84140;SDS011;74257;52.540;13.416;2024-01-27T08:07:14;12.73;;;2.30;;
84140;SDS011;74257;52.540;13.416;2024-01-27T08:09:41;8.82;;;2.63;;
84140;SDS011;74257;52.540;13.416;2024-01-27T08:12:07;5.70;;;2.15;;
84140;SDS011;74257;52.540;13.416;2024-01-27T08:14:33;6.03;;;2.17;;
84140;SDS011;74257;52.540;13.416;2024-01-27T08:17:01;6.03;;;2.25;;
84140;SDS011;74257;52.540;13.416;2024-01-27T08:19:28;7.68;;;2.50;;
84140;SDS011;74257;52.540;13.416;2024-01-27T08:21:54;12.23;;;2.63;;
84140;SDS011;74257;52.540;13.416;2024-01-27T08:24:20;6.85;;;1.83;;
84140;SDS011;74257;52.540;13.416;2024-01-27T08:26:48;7.28;;;2.60;;
84140;SDS011;74257;52.540;13.416;2024-01-27T08:29:13;6.43;;;2.03;;
84140;SDS011;74257;52.540;13.416;2024-01-27T08:31:39;4.72;;;2.00;;
84140;SDS011;74257;52.540;13.416;2024-01-27T08:34:05;5.50;;;2.10;;
84140;SDS011;74257;52.540;13.416;2024-01-27T08:36:31;7.95;;;2.22;;
84140;SDS011;74257;52.540;13.416;2024-01-27T08:38:59;7.72;;;2.67;;
84140;SDS011;74257;52.540;13.416;2024-01-27T08:41:25;7.35;;;2.25;;
84140;SDS011;74257;52.540;13.416;2024-01-27T08:43:51;5.78;;;2.20;;
84140;SDS011;74257;52.540;13.416;2024-01-27T08:46:17;9.40;;;2.45;;
84140;SDS011;74257;52.540;13.416;2024-01-27T08:48:44;5.22;;;2.20;;
84140;SDS011;74257;52.540;13.416;2024-01-27T08:51:11;10.25;;;2.85;;
84140;SDS011;74257;52.540;13.416;2024-01-27T08:53:38;7.70;;;2.40;;
84140;SDS011;74257;52.540;13.416;2024-01-27T08:56:04;10.15;;;2.63;;
84140;SDS011;74257;52.540;13.416;2024-01-27T08:58:30;13.65;;;2.50;;
84140;SDS011;74257;52.540;13.416;2024-01-27T09:00:57;11.68;;;2.83;;
84140;SDS011;74257;52.540;13.416;2024-01-27T09:03:25;13.63;;;2.88;;
84140;SDS011;74257;52.540;13.416;2024-01-27T09:05:51;14.88;;;2.72;;
84140;SDS011;74257;52.540;13.416;2024-01-27T09:08:17;9.82;;;2.65;;
84140;SDS011;74257;52.540;13.416;2024-01-27T09:10:43;10.48;;;2.88;;
84140;SDS011;74257;52.540;13.416;2024-01-27T09:13:08;8.55;;;2.70;;
84140;SDS011;74257;52.540;13.416;2024-01-27T09:15:34;6.22;;;2.42;;
84140;SDS011;74257;52.540;13.416;2024-01-27T09:18:00;10.93;;;2.40;;
84140;SDS011;74257;52.540;13.416;2024-01-27T09:20:26;10.95;;;2.92;;
84140;SDS011;74257;52.540;13.416;2024-01-27T09:22:52;8.60;;;2.67;;
84140;SDS011;74257;52.540;13.416;2024-01-27T09:25:18;12.88;;;2.97;;
84140;SDS011;74257;52.540;13.416;2024-01-27T09:27:43;14.82;;;3.00;;
84140;SDS011;74257;52.540;13.416;2024-01-27T09:30:10;18.20;;;2.78;;
84140;SDS011;74257;52.540;13.416;2024-01-27T09:32:36;11.73;;;3.03;;
84140;SDS011;74257;52.540;13.416;2024-01-27T09:35:02;13.45;;;2.88;;
84140;SDS011;74257;52.540;13.416;2024-01-27T09:37:28;13.05;;;2.80;;
84140;SDS011;74257;52.540;13.416;2024-01-27T09:39:54;15.57;;;3.92;;
84140;SDS011;74257;52.540;13.416;2024-01-27T09:42:20;18.55;;;4.18;;
84140;SDS011;74257;52.540;13.416;2024-01-27T09:44:48;18.40;;;3.75;;
84140;SDS011;74257;52.540;13.416;2024-01-27T09:47:17;21.33;;;3.75;;
84140;SDS011;74257;52.540;13.416;2024-01-27T09:49:45;17.30;;;3.70;;
84140;SDS011;74257;52.540;13.416;2024-01-27T09:52:12;18.33;;;3.80;;
84140;SDS011;74257;52.540;13.416;2024-01-27T09:54:38;21.08;;;4.15;;
84140;SDS011;74257;52.540;13.416;2024-01-27T09:57:05;24.95;;;3.92;;
84140;SDS011;74257;52.540;13.416;2024-01-27T09:59:34;19.13;;;3.55;;
84140;SDS011;74257;52.540;13.416;2024-01-27T10:02:02;14.30;;;3.28;;
84140;SDS011;74257;52.540;13.416;2024-01-27T10:04:29;20.30;;;3.90;;
84140;SDS011;74257;52.540;13.416;2024-01-27T10:06:55;21.98;;;3.67;;
84140;SDS011;74257;52.540;13.416;2024-01-27T10:09:23;17.00;;;3.08;;
84140;SDS011;74257;52.540;13.416;2024-01-27T10:11:49;22.65;;;3.97;;
84140;SDS011;74257;52.540;13.416;2024-01-27T10:14:15;16.05;;;3.00;;
84140;SDS011;74257;52.540;13.416;2024-01-27T10:16:44;16.30;;;3.65;;
84140;SDS011;74257;52.540;13.416;2024-01-27T10:19:17;21.88;;;3.30;;
84140;SDS011;74257;52.540;13.416;2024-01-27T10:21:46;19.70;;;3.47;;
84140;SDS011;74257;52.540;13.416;2024-01-27T10:24:13;19.60;;;3.78;;
84140;SDS011;74257;52.540;13.416;2024-01-27T10:26:40;16.38;;;3.80;;
84140;SDS011;74257;52.540;13.416;2024-01-27T10:29:06;14.40;;;3.45;;
84140;SDS011;74257;52.540;13.416;2024-01-27T10:31:33;12.80;;;3.20;;
84140;SDS011;74257;52.540;13.416;2024-01-27T10:34:00;11.68;;;3.30;;
84140;SDS011;74257;52.540;13.416;2024-01-27T10:36:42;16.73;;;3.60;;
84140;SDS011;74257;52.540;13.416;2024-01-27T10:39:18;15.55;;;3.80;;
84140;SDS011;74257;52.540;13.416;2024-01-27T10:41:48;13.60;;;3.47;;
84140;SDS011;74257;52.540;13.416;2024-01-27T10:44:15;12.00;;;3.72;;
84140;SDS011;74257;52.540;13.416;2024-01-27T10:46:45;13.98;;;3.20;;
84140;SDS011;74257;52.540;13.416;2024-01-27T10:49:12;14.77;;;3.55;;
84140;SDS011;74257;52.540;13.416;2024-01-27T10:51:43;10.70;;;3.53;;
84140;SDS011;74257;52.540;13.416;2024-01-27T10:54:27;17.05;;;3.88;;
84140;SDS011;74257;52.540;13.416;2024-01-27T10:56:53;13.15;;;3.20;;
84140;SDS011;74257;52.540;13.416;2024-01-27T10:59:21;15.63;;;3.53;;
84140;SDS011;74257;52.540;13.416;2024-01-27T11:01:50;14.80;;;3.35;;
84140;SDS011;74257;52.540;13.416;2024-01-27T11:04:21;11.80;;;3.53;;
84140;SDS011;74257;52.540;13.416;2024-01-27T11:06:47;9.27;;;3.03;;
84140;SDS011;74257;52.540;13.416;2024-01-27T11:09:14;11.68;;;3.67;;
84140;SDS011;74257;52.540;13.416;2024-01-27T11:11:41;11.38;;;3.72;;
84140;SDS011;74257;52.540;13.416;2024-01-27T11:14:08;12.82;;;3.47;;
84140;SDS011;74257;52.540;13.416;2024-01-27T11:16:35;12.50;;;3.50;;
84140;SDS011;74257;52.540;13.416;2024-01-27T11:19:09;13.30;;;3.17;;
84140;SDS011;74257;52.540;13.416;2024-01-27T11:21:36;19.58;;;4.25;;
84140;SDS011;74257;52.540;13.416;2024-01-27T11:24:15;10.02;;;3.45;;
84140;SDS011;74257;52.540;13.416;2024-01-27T11:26:41;11.30;;;3.38;;
84140;SDS011;74257;52.540;13.416;2024-01-27T11:29:08;15.13;;;2.80;;
84140;SDS011;74257;52.540;13.416;2024-01-27T11:31:45;15.75;;;3.03;;
84140;SDS011;74257;52.540;13.416;2024-01-27T11:34:12;13.63;;;3.42;;
84140;SDS011;74257;52.540;13.416;2024-01-27T11:36:37;9.13;;;3.00;;
84140;SDS011;74257;52.540;13.416;2024-01-27T11:39:03;21.30;;;3.25;;
84140;SDS011;74257;52.540;13.416;2024-01-27T11:41:30;10.85;;;2.92;;
84140;SDS011;74257;52.540;13.416;2024-01-27T11:43:57;10.10;;;2.95;;
84140;SDS011;74257;52.540;13.416;2024-01-27T11:46:25;10.60;;;3.00;;
84140;SDS011;74257;52.540;13.416;2024-01-27T11:48:51;14.73;;;3.70;;
84140;SDS011;74257;52.540;13.416;2024-01-27T11:51:17;11.38;;;3.10;;
84140;SDS011;74257;52.540;13.416;2024-01-27T11:53:48;9.65;;;2.88;;
84140;SDS011;74257;52.540;13.416;2024-01-27T11:56:14;9.27;;;3.08;;
84140;SDS011;74257;52.540;13.416;2024-01-27T11:58:45;12.95;;;3.00;;
84140;SDS011;74257;52.540;13.416;2024-01-27T12:01:14;8.77;;;2.60;;
84140;SDS011;74257;52.540;13.416;2024-01-27T12:03:41;12.30;;;3.15;;
84140;SDS011;74257;52.540;13.416;2024-01-27T12:06:07;9.27;;;2.95;;
84140;SDS011;74257;52.540;13.416;2024-01-27T12:08:35;10.57;;;2.58;;
84140;SDS011;74257;52.540;13.416;2024-01-27T12:11:01;13.38;;;3.67;;
84140;SDS011;74257;52.540;13.416;2024-01-27T12:13:27;13.32;;;3.03;;
84140;SDS011;74257;52.540;13.416;2024-01-27T12:15:53;16.15;;;3.47;;
84140;SDS011;74257;52.540;13.416;2024-01-27T12:18:19;14.68;;;3.80;;
84140;SDS011;74257;52.540;13.416;2024-01-27T12:20:45;10.02;;;2.95;;
84140;SDS011;74257;52.540;13.416;2024-01-27T12:23:11;11.27;;;2.70;;
84140;SDS011;74257;52.540;13.416;2024-01-27T12:25:36;15.45;;;2.95;;
84140;SDS011;74257;52.540;13.416;2024-01-27T12:28:03;9.75;;;2.72;;
84140;SDS011;74257;52.540;13.416;2024-01-27T12:30:31;16.63;;;3.45;;
84140;SDS011;74257;52.540;13.416;2024-01-27T12:32:58;18.33;;;3.00;;
84140;SDS011;74257;52.540;13.416;2024-01-27T12:35:25;12.02;;;3.00;;
84140;SDS011;74257;52.540;13.416;2024-01-27T12:37:53;17.15;;;3.30;;
84140;SDS011;74257;52.540;13.416;2024-01-27T12:40:22;11.88;;;3.45;;
84140;SDS011;74257;52.540;13.416;2024-01-27T12:42:48;14.43;;;3.20;;
84140;SDS011;74257;52.540;13.416;2024-01-27T12:45:14;16.23;;;2.92;;
84140;SDS011;74257;52.540;13.416;2024-01-27T12:47:41;12.73;;;3.20;;
84140;SDS011;74257;52.540;13.416;2024-01-27T12:50:07;13.05;;;2.70;;
84140;SDS011;74257;52.540;13.416;2024-01-27T12:52:33;19.42;;;3.78;;
84140;SDS011;74257;52.540;13.416;2024-01-27T12:54:59;10.75;;;2.80;;
84140;SDS011;74257;52.540;13.416;2024-01-27T12:57:25;12.27;;;3.13;;
84140;SDS011;74257;52.540;13.416;2024-01-27T12:59:51;12.10;;;3.28;;
84140;SDS011;74257;52.540;13.416;2024-01-27T13:02:17;12.35;;;3.45;;
84140;SDS011;74257;52.540;13.416;2024-01-27T13:04:43;15.75;;;3.42;;
84140;SDS011;74257;52.540;13.416;2024-01-27T13:07:09;12.40;;;3.00;;
84140;SDS011;74257;52.540;13.416;2024-01-27T13:09:35;9.88;;;3.05;;
84140;SDS011;74257;52.540;13.416;2024-01-27T13:12:02;14.25;;;2.78;;
84140;SDS011;74257;52.540;13.416;2024-01-27T13:14:29;10.23;;;2.85;;
84140;SDS011;74257;52.540;13.416;2024-01-27T13:16:55;14.48;;;3.83;;
84140;SDS011;74257;52.540;13.416;2024-01-27T13:19:22;11.88;;;2.95;;
84140;SDS011;74257;52.540;13.416;2024-01-27T13:21:48;7.90;;;2.85;;
84140;SDS011;74257;52.540;13.416;2024-01-27T13:24:13;7.90;;;2.42;;
84140;SDS011;74257;52.540;13.416;2024-01-27T13:26:39;12.38;;;2.70;;
84140;SDS011;74257;52.540;13.416;2024-01-27T13:29:05;9.77;;;2.75;;
84140;SDS011;74257;52.540;13.416;2024-01-27T13:31:33;8.23;;;2.50;;
84140;SDS011;74257;52.540;13.416;2024-01-27T13:33:59;9.55;;;2.85;;
84140;SDS011;74257;52.540;13.416;2024-01-27T13:36:26;14.48;;;2.80;;
84140;SDS011;74257;52.540;13.416;2024-01-27T13:38:52;8.73;;;2.50;;
84140;SDS011;74257;52.540;13.416;2024-01-27T13:41:18;13.93;;;2.85;;
84140;SDS011;74257;52.540;13.416;2024-01-27T13:43:44;12.48;;;3.28;;
84140;SDS011;74257;52.540;13.416;2024-01-27T13:46:10;11.32;;;2.60;;
84140;SDS011;74257;52.540;13.416;2024-01-27T13:48:36;13.38;;;2.70;;
84140;SDS011;74257;52.540;13.416;2024-01-27T13:51:02;8.55;;;2.40;;
84140;SDS011;74257;52.540;13.416;2024-01-27T13:53:28;8.55;;;2.60;;
84140;SDS011;74257;52.540;13.416;2024-01-27T13:55:55;11.13;;;2.63;;
84140;SDS011;74257;52.540;13.416;2024-01-27T13:58:21;12.25;;;2.83;;
84140;SDS011;74257;52.540;13.416;2024-01-27T14:00:47;13.80;;;2.75;;
84140;SDS011;74257;52.540;13.416;2024-01-27T14:03:13;7.57;;;2.70;;
84140;SDS011;74257;52.540;13.416;2024-01-27T14:05:39;7.45;;;2.60;;
84140;SDS011;74257;52.540;13.416;2024-01-27T14:08:06;5.40;;;2.53;;
84140;SDS011;74257;52.540;13.416;2024-01-27T14:10:33;10.25;;;2.70;;
84140;SDS011;74257;52.540;13.416;2024-01-27T14:13:00;10.00;;;2.67;;
84140;SDS011;74257;52.540;13.416;2024-01-27T14:15:30;9.60;;;2.80;;
84140;SDS011;74257;52.540;13.416;2024-01-27T14:17:56;7.65;;;2.53;;
84140;SDS011;74257;52.540;13.416;2024-01-27T14:20:22;9.15;;;2.40;;
84140;SDS011;74257;52.540;13.416;2024-01-27T14:22:48;10.85;;;2.95;;
84140;SDS011;74257;52.540;13.416;2024-01-27T14:25:14;12.48;;;2.95;;
84140;SDS011;74257;52.540;13.416;2024-01-27T14:27:39;12.00;;;3.47;;